Time;durP1;ratioP1;P1;durP2;ratioP2;P2;SDS_P1;SDS_P2;PMS_P1;PMS_P2;Temp;Humidity;BMP_temperature;BMP_pressure;BME280_temperature;BME280_humidity;BME280_pressure;Samples;Min_cycle;Max_cycle;Signal;HPM_P1;HPM_P2
2022/02/20 15:46:21;;;;;;;;;5.00;5.00;;;;;14.64;47.38;97756.06;5971546;23;103691;-80
2022/02/20 15:48:52;;;;;;;;;7.25;6.00;;;;;14.85;48.38;97744.44;4944114;28;102618;-79
2022/02/20 15:51:20;;;;;;;;;4.25;4.25;;;;;15.01;48.45;97735.41;4909014;28;102689;-76
2022/02/20 15:53:47;;;;;;;;;7.75;6.75;;;;;15.14;49.74;97739.66;4927558;28;104371;-77
2022/02/20 15:56:14;;;;;;;;;13.25;11.50;;;;;15.28;49.53;97738.22;4929021;28;107860;-84
2022/02/20 15:58:41;;;;;;;;;14.25;10.75;;;;;15.40;48.59;97741.66;4918751;28;102669;-81
2022/02/20 16:01:09;;;;;;;;;10.00;7.00;;;;;15.50;49.50;97738.25;4959073;28;102465;-78
2022/02/20 16:03:37;;;;;;;;;10.25;8.25;;;;;15.59;48.91;97737.56;4948594;28;104550;-76
2022/02/20 16:06:04;;;;;;;;;10.50;9.50;;;;;15.66;48.76;97726.50;4942071;28;104190;-77
2022/02/20 16:08:32;;;;;;;;;9.00;8.25;;;;;15.74;49.44;97736.13;4955304;28;102616;-77
2022/02/20 16:10:59;;;;;;;;;10.75;8.75;;;;;15.78;49.18;97727.16;4937076;28;102698;-76
2022/02/20 16:13:26;;;;;;;;;11.00;7.00;;;;;15.85;48.48;97735.16;4955156;28;104461;-76
2022/02/20 16:15:53;;;;;;;;;7.75;7.75;;;;;15.89;48.41;97734.41;4944943;28;104082;-76
2022/02/20 16:18:20;;;;;;;;;10.00;7.75;;;;;15.95;48.17;97727.91;4956817;28;102597;-76
2022/02/20 16:20:53;;;;;;;;;6.75;6.25;;;;;15.99;48.14;97725.47;4956436;28;102730;-76
2022/02/20 16:23:21;;;;;;;;;8.50;7.50;;;;;16.06;48.03;97732.38;4943591;28;104065;-76
2022/02/20 16:25:48;;;;;;;;;7.75;7.00;;;;;16.12;47.90;97730.50;4952605;28;102468;-76
2022/02/20 16:28:15;;;;;;;;;8.25;7.50;;;;;16.18;47.56;97718.59;4929571;28;103678;-76
2022/02/20 16:30:43;;;;;;;;;5.50;5.50;;;;;16.25;48.27;97718.38;4951046;28;102859;-76
2022/02/20 16:33:10;;;;;;;;;8.00;7.25;;;;;16.30;47.78;97718.44;4956788;28;104486;-77
2022/02/20 16:35:37;;;;;;;;;6.75;6.75;;;;;16.35;47.61;97721.19;4947351;28;102637;-77
2022/02/20 16:38:05;;;;;;;;;8.00;7.00;;;;;16.33;47.36;97718.75;4958778;28;102383;-77
2022/02/20 16:40:38;;;;;;;;;7.75;7.00;;;;;16.23;47.06;97735.00;4958418;28;102557;-76
2022/02/20 16:43:05;;;;;;;;;7.00;6.25;;;;;16.07;46.62;97727.75;4915903;28;108998;-76
2022/02/20 16:45:42;;;;;;;;;9.00;8.75;;;;;16.01;45.60;97724.16;4941935;28;102369;-77
2022/02/20 16:48:09;;;;;;;;;10.50;7.75;;;;;16.00;44.86;97727.97;4925882;28;105711;-77
2022/02/20 16:50:39;;;;;;;;;7.00;6.00;;;;;15.95;45.29;97736.06;4947692;28;102827;-76
2022/02/20 16:53:08;;;;;;;;;12.00;7.00;;;;;15.92;45.31;97736.59;4938311;28;104102;-76
2022/02/20 16:55:35;;;;;;;;;6.50;6.50;;;;;15.91;45.54;97734.94;4929233;28;104268;-76
2022/02/20 16:58:02;;;;;;;;;9.50;7.00;;;;;15.89;45.92;97741.75;4947558;28;102698;-76
2022/02/20 17:00:30;;;;;;;;;8.00;7.25;;;;;15.85;46.01;97740.63;4950890;28;103590;-76
2022/02/20 17:02:58;;;;;;;;;7.50;7.50;;;;;15.84;46.03;97739.78;4952601;28;104134;-76
2022/02/20 17:05:27;;;;;;;;;9.00;8.00;;;;;15.84;45.94;97736.25;4948209;28;103594;-76
2022/02/20 17:07:54;;;;;;;;;8.75;8.00;;;;;15.80;45.47;97726.94;4935946;28;102445;-76
2022/02/20 17:10:23;;;;;;;;;8.50;6.50;;;;;15.76;45.78;97740.22;4960917;28;102582;-76
2022/02/20 17:12:53;;;;;;;;;8.50;7.00;;;;;15.74;45.34;97731.50;4929641;28;104198;-76
2022/02/20 17:15:23;;;;;;;;;7.50;6.75;;;;;15.72;45.58;97730.91;4920954;28;102434;-76
2022/02/20 17:17:51;;;;;;;;;9.00;7.00;;;;;15.68;45.93;97724.31;4957225;28;102581;-76
2022/02/20 17:20:19;;;;;;;;;7.00;6.75;;;;;15.66;45.49;97721.03;4947075;28;103070;-76
2022/02/20 17:22:49;;;;;;;;;6.75;6.00;;;;;15.62;46.01;97714.47;4942462;28;103119;-76
2022/02/20 17:25:17;;;;;;;;;6.00;6.00;;;;;15.61;45.52;97715.53;4930231;28;104099;-76
2022/02/20 17:27:44;;;;;;;;;8.75;6.25;;;;;15.57;45.54;97706.22;4941419;28;102573;-76
2022/02/20 17:30:11;;;;;;;;;6.00;6.00;;;;;15.56;45.84;97704.56;4955776;28;102512;-76
2022/02/20 17:32:38;;;;;;;;;6.00;5.00;;;;;15.53;45.66;97697.75;4919301;28;104299;-76
2022/02/20 17:35:08;;;;;;;;;9.25;6.50;;;;;15.49;45.65;97695.75;4951573;28;102705;-76
2022/02/20 17:37:39;;;;;;;;;7.50;7.00;;;;;15.46;45.61;97679.88;4948381;28;102644;-76
2022/02/20 17:40:10;;;;;;;;;7.00;5.75;;;;;15.45;45.67;97686.41;4944128;28;102722;-76
2022/02/20 17:42:44;;;;;;;;;10.25;8.00;;;;;15.41;45.10;97680.66;4947751;28;103250;-76
2022/02/20 17:45:14;;;;;;;;;6.00;6.00;;;;;15.40;45.27;97680.94;4910818;28;102857;-76
2022/02/20 17:47:42;;;;;;;;;7.00;7.00;;;;;15.39;45.32;97682.00;4928673;28;103697;-76
2022/02/20 17:50:10;;;;;;;;;5.00;5.00;;;;;15.38;45.14;97669.44;4945886;28;102682;-76
2022/02/20 17:52:38;;;;;;;;;6.75;5.75;;;;;15.36;45.16;97671.59;4950435;28;104307;-76
2022/02/20 17:55:06;;;;;;;;;6.00;6.00;;;;;15.33;45.22;97672.09;4939392;28;102727;-76
2022/02/20 17:57:33;;;;;;;;;6.75;5.25;;;;;15.33;45.12;97672.09;4924035;28;103122;-76
2022/02/20 18:00:02;;;;;;;;;7.00;6.00;;;;;15.30;45.26;97672.63;4957357;28;102678;-76
2022/02/20 18:02:29;;;;;;;;;8.00;5.00;;;;;15.28;45.10;97669.31;4931424;28;104043;-76
2022/02/20 18:04:56;;;;;;;;;5.00;4.25;;;;;15.27;45.23;97673.09;4923030;28;105601;-76
2022/02/20 18:07:24;;;;;;;;;4.00;4.00;;;;;15.24;44.79;97671.72;4925080;28;103212;-76
2022/02/20 18:09:51;;;;;;;;;8.50;8.00;;;;;15.24;44.73;97679.06;4928805;28;102696;-75
2022/02/20 18:12:18;;;;;;;;;5.75;5.25;;;;;15.22;45.18;97670.34;4953553;28;104041;-76
2022/02/20 18:14:46;;;;;;;;;7.00;6.00;;;;;15.21;44.78;97674.16;4949196;28;103869;-76
2022/02/20 18:17:13;;;;;;;;;6.00;6.00;;;;;15.20;45.07;97676.03;4954335;28;102541;-76
2022/02/20 18:19:40;;;;;;;;;5.75;5.75;;;;;15.17;44.65;97669.19;4955648;28;102481;-76
2022/02/20 18:22:09;;;;;;;;;7.00;6.50;;;;;15.14;44.96;97674.31;4953081;28;104032;-76
2022/02/20 18:24:36;;;;;;;;;4.50;4.50;;;;;15.12;44.64;97666.41;4948941;28;102328;-76
2022/02/20 18:27:03;;;;;;;;;5.00;5.00;;;;;15.09;44.63;97672.34;4929386;28;102838;-76
2022/02/20 18:29:30;;;;;;;;;5.00;5.00;;;;;15.07;44.60;97663.63;4953418;28;103332;-76
2022/02/20 18:31:58;;;;;;;;;5.75;5.00;;;;;15.09;44.98;97666.06;4959021;28;104217;-76
2022/02/20 18:34:28;;;;;;;;;4.25;4.25;;;;;15.07;44.28;97660.91;4900889;28;102652;-76
2022/02/20 18:36:57;;;;;;;;;5.75;4.50;;;;;15.07;44.13;97662.81;4937793;28;102730;-76
2022/02/20 18:39:24;;;;;;;;;8.25;6.50;;;;;15.05;44.58;97654.06;4939633;28;102489;-76
2022/02/20 18:41:51;;;;;;;;;5.00;5.00;;;;;15.01;44.36;97650.19;4948567;28;105297;-75
2022/02/20 18:44:20;;;;;;;;;5.50;5.00;;;;;15.01;44.28;97652.91;4954215;28;106158;-81
2022/02/20 18:46:47;;;;;;;;;5.00;3.50;;;;;15.13;45.23;97662.59;4955005;28;103693;-80
2022/02/20 18:49:16;;;;;;;;;5.00;4.25;;;;;15.28;47.72;97653.81;4939583;28;104335;-79
2022/02/20 18:51:43;;;;;;;;;4.00;4.00;;;;;15.45;49.00;97649.09;4957883;28;104115;-80
2022/02/20 18:54:10;;;;;;;;;4.25;3.00;;;;;15.60;49.82;97654.75;4931442;28;103339;-80
2022/02/20 18:56:37;;;;;;;;;4.50;3.50;;;;;15.67;49.30;97646.34;4944391;28;102444;-76
2022/02/20 18:59:05;;;;;;;;;3.00;3.00;;;;;15.65;48.92;97639.53;4943169;28;102615;-76
2022/02/20 19:01:32;;;;;;;;;5.50;4.25;;;;;15.60;48.33;97634.84;4956703;28;109521;-76
2022/02/20 19:03:59;;;;;;;;;5.50;5.00;;;;;15.55;47.89;97634.78;4936027;28;103450;-76
2022/02/20 19:06:26;;;;;;;;;4.75;4.50;;;;;15.55;47.80;97642.97;4950641;28;103132;-75
2022/02/20 19:08:53;;;;;;;;;5.00;5.00;;;;;15.50;47.91;97642.88;4955392;28;102468;-76
2022/02/20 19:11:21;;;;;;;;;5.50;5.00;;;;;15.49;47.99;97643.97;4931814;28;103545;-76
2022/02/20 19:13:49;;;;;;;;;4.75;4.50;;;;;15.46;48.12;97636.28;4947031;28;103606;-76
2022/02/20 19:16:16;;;;;;;;;7.00;6.00;;;;;15.44;47.98;97635.75;4935263;28;102763;-76
2022/02/20 19:18:44;;;;;;;;;5.50;5.25;;;;;15.42;47.45;97629.72;4951103;28;102748;-76
2022/02/20 19:21:11;;;;;;;;;5.00;4.25;;;;;15.40;47.57;97621.78;4951535;28;104975;-76
2022/02/20 19:23:38;;;;;;;;;5.75;4.25;;;;;15.38;47.78;97623.13;4925164;28;102704;-76
2022/02/20 19:26:06;;;;;;;;;4.50;4.50;;;;;15.35;47.52;97620.94;4958358;28;102973;-75
2022/02/20 19:28:35;;;;;;;;;6.25;5.00;;;;;15.34;47.61;97613.84;4946921;28;102702;-76
2022/02/20 19:31:05;;;;;;;;;5.50;4.25;;;;;15.31;47.23;97608.91;4934700;28;108081;-79
2022/02/20 19:33:38;;;;;;;;;5.50;4.50;;;;;15.30;47.74;97616.25;4916716;28;103100;-76
2022/02/20 19:36:07;;;;;;;;;6.50;6.00;;;;;15.29;47.37;97608.31;4951046;28;104029;-76
2022/02/20 19:38:37;;;;;;;;;4.75;4.25;;;;;15.28;47.09;97609.41;4922809;28;102947;-76
2022/02/20 19:41:10;;;;;;;;;4.50;4.00;;;;;15.24;46.95;97598.19;4926909;28;108678;-76
2022/02/20 19:43:43;;;;;;;;;4.00;4.00;;;;;15.23;46.90;97593.81;4935348;28;102476;-76
2022/02/20 19:46:11;;;;;;;;;6.00;5.00;;;;;15.22;46.92;97599.53;4934436;28;102462;-75
2022/02/20 19:48:39;;;;;;;;;5.00;4.25;;;;;15.21;46.83;97600.63;4956239;28;102359;-75
2022/02/20 19:51:07;;;;;;;;;7.00;5.00;;;;;15.18;46.63;97605.47;4961728;28;104132;-76
2022/02/20 19:53:35;;;;;;;;;4.25;4.00;;;;;15.15;46.74;97599.72;4951514;28;102373;-76
2022/02/20 19:56:04;;;;;;;;;1.00;0.25;;;;;15.13;46.45;97589.06;4960822;28;103530;-76
2022/02/20 19:58:40;;;;;;;;;5.50;5.25;;;;;15.12;46.72;97595.63;4953969;28;103467;-76
2022/02/20 20:01:08;;;;;;;;;5.00;4.25;;;;;15.13;45.99;97586.34;4958974;28;107734;-76
2022/02/20 20:03:37;;;;;;;;;3.25;3.00;;;;;15.13;46.11;97575.47;4954373;28;102733;-76
2022/02/20 20:06:06;;;;;;;;;3.75;3.50;;;;;15.10;46.19;97572.44;4936431;28;102512;-76
2022/02/20 20:08:33;;;;;;;;;4.00;4.00;;;;;15.08;46.10;97561.00;4959441;28;103934;-76
2022/02/20 20:11:00;;;;;;;;;6.50;5.00;;;;;15.08;46.00;97571.88;4951117;28;104064;-76
2022/02/20 20:13:28;;;;;;;;;5.00;4.00;;;;;15.07;45.95;97564.78;4948836;28;102649;-75
2022/02/20 20:15:58;;;;;;;;;5.75;5.00;;;;;15.04;45.83;97568.81;4954974;28;103610;-76
2022/02/20 20:18:29;;;;;;;;;5.00;4.00;;;;;15.01;45.84;97566.63;4956317;28;102322;-76
2022/02/20 20:20:56;;;;;;;;;6.75;4.50;;;;;15.01;46.10;97555.72;4938295;28;104001;-75
2022/02/20 20:23:23;;;;;;;;;4.50;4.50;;;;;15.01;45.74;97555.72;4937436;28;102440;-75
2022/02/20 20:25:50;;;;;;;;;5.25;4.00;;;;;14.99;45.99;97557.06;4937801;28;102644;-75
2022/02/20 20:28:18;;;;;;;;;7.00;4.75;;;;;14.97;45.64;97564.66;4942920;28;102696;-75
2022/02/20 20:30:45;;;;;;;;;4.00;3.75;;;;;14.96;45.85;97561.13;4947164;28;104258;-75
2022/02/20 20:33:12;;;;;;;;;4.50;4.00;;;;;14.95;45.75;97561.38;4952673;28;102723;-75
2022/02/20 20:35:39;;;;;;;;;4.50;4.50;;;;;14.93;45.75;97550.75;4959004;28;103732;-76
2022/02/20 20:38:06;;;;;;;;;4.00;3.00;;;;;14.95;45.55;97564.91;4941872;28;102588;-76
2022/02/20 20:40:34;;;;;;;;;3.00;3.00;;;;;14.93;45.37;97553.47;4958272;28;108927;-75
2022/02/20 20:43:02;;;;;;;;;3.75;3.00;;;;;14.93;44.81;97555.38;4933927;28;102821;-75
2022/02/20 20:45:30;;;;;;;;;4.75;3.50;;;;;14.91;45.45;97549.34;4953910;28;102329;-75
2022/02/20 20:47:57;;;;;;;;;4.00;3.00;;;;;14.92;45.05;97549.09;4939838;28;103631;-75
2022/02/20 20:50:25;;;;;;;;;2.25;2.25;;;;;14.91;44.98;97543.91;4953806;28;103057;-76
2022/02/20 20:52:55;;;;;;;;;3.75;3.75;;;;;14.91;45.12;97549.34;4951538;28;103046;-76
2022/02/20 20:55:22;;;;;;;;;5.75;3.50;;;;;14.89;44.86;97538.72;4947571;28;102934;-76
2022/02/20 20:57:50;;;;;;;;;3.25;2.75;;;;;14.88;44.81;97533.53;4951124;28;102334;-76
2022/02/20 21:00:19;;;;;;;;;6.00;5.00;;;;;14.89;44.89;97540.63;4918845;28;104188;-76
2022/02/20 21:02:51;;;;;;;;;3.25;3.00;;;;;14.83;44.63;97523.41;4956678;28;104231;-76
2022/02/20 21:05:19;;;;;;;;;3.00;2.00;;;;;14.83;44.91;97515.22;4952279;28;103431;-76
2022/02/20 21:07:46;;;;;;;;;5.00;4.00;;;;;14.82;44.72;97521.75;4943100;28;102442;-76
2022/02/20 21:10:15;;;;;;;;;5.00;4.50;;;;;14.82;44.96;97519.03;4932710;28;106376;-76
2022/02/20 21:12:42;;;;;;;;;4.00;3.00;;;;;14.78;45.02;97498.84;4924346;28;104103;-76
2022/02/20 21:15:10;;;;;;;;;3.00;2.00;;;;;14.79;44.99;97494.22;4946221;28;102616;-76
2022/02/20 21:17:37;;;;;;;;;3.50;3.00;;;;;14.77;44.99;97489.03;4961904;28;103962;-75
2022/02/20 21:20:09;;;;;;;;;3.75;3.00;;;;;14.77;44.77;97482.78;4949125;28;108676;-76
2022/02/20 21:22:37;;;;;;;;;4.00;4.00;;;;;14.75;44.81;97477.59;4950492;28;102433;-76
2022/02/20 21:25:05;;;;;;;;;2.00;2.00;;;;;14.73;44.85;97482.44;4936331;28;102764;-76
2022/02/20 21:27:32;;;;;;;;;3.00;2.25;;;;;14.74;44.44;97478.66;4932353;28;103609;-76
2022/02/20 21:29:59;;;;;;;;;3.25;3.00;;;;;14.73;44.44;97471.56;4947331;28;104045;-76
2022/02/20 21:32:30;;;;;;;;;4.75;2.75;;;;;14.73;44.58;97477.00;4953888;28;103436;-75
2022/02/20 21:34:57;;;;;;;;;3.00;3.00;;;;;14.72;44.80;97453.63;4939687;28;102681;-75
2022/02/20 21:37:24;;;;;;;;;3.75;3.00;;;;;14.71;44.66;97443.81;4950356;28;104077;-76
2022/02/20 21:39:52;;;;;;;;;4.50;2.75;;;;;14.72;44.47;97453.63;4933222;28;104053;-76
2022/02/20 21:42:21;;;;;;;;;5.00;3.50;;;;;14.69;44.83;97443.22;4850287;28;102419;-75
2022/02/20 21:44:49;;;;;;;;;3.00;3.00;;;;;14.76;44.78;97443.88;4917043;28;102502;-76
2022/02/20 21:47:16;;;;;;;;;2.50;2.50;;;;;14.77;44.66;97450.94;4952342;28;102529;-75
2022/02/20 21:49:44;;;;;;;;;3.00;3.00;;;;;14.78;44.75;97443.59;4954053;28;105235;-75
2022/02/20 21:52:11;;;;;;;;;3.00;2.00;;;;;14.78;45.55;97432.72;4940352;28;102847;-76
2022/02/20 21:54:41;;;;;;;;;3.00;3.00;;;;;14.77;45.50;97429.16;4919809;28;103777;-76
2022/02/20 21:57:08;;;;;;;;;3.50;3.00;;;;;14.77;45.91;97426.44;4956455;28;105650;-76
2022/02/20 21:59:35;;;;;;;;;3.00;2.25;;;;;14.77;46.00;97431.88;4938187;28;104144;-75
2022/02/20 22:02:03;;;;;;;;;2.50;2.50;;;;;14.76;46.45;97426.72;4952482;28;102659;-75
2022/02/20 22:04:30;;;;;;;;;3.25;2.25;;;;;14.74;46.46;97413.34;4955290;28;102463;-76
2022/02/20 22:06:57;;;;;;;;;3.75;3.75;;;;;14.73;46.31;97401.66;4944404;28;102642;-75
2022/02/20 22:09:24;;;;;;;;;4.00;3.00;;;;;14.74;45.89;97402.47;4953485;28;104057;-75
2022/02/20 22:11:54;;;;;;;;;3.00;3.00;;;;;14.73;45.81;97389.94;4941328;28;103420;-75
2022/02/20 22:14:21;;;;;;;;;4.25;3.00;;;;;14.72;45.99;97367.34;4948502;28;102573;-75
2022/02/20 22:16:48;;;;;;;;;2.00;2.00;;;;;14.73;45.69;97368.16;4953140;28;102445;-75
2022/02/20 22:19:15;;;;;;;;;3.75;3.00;;;;;14.70;45.68;97369.53;4954108;28;105555;-75
2022/02/20 22:21:43;;;;;;;;;3.00;2.00;;;;;14.70;45.69;97360.53;4952172;28;102585;-76
2022/02/20 22:24:10;;;;;;;;;3.50;3.50;;;;;14.69;45.44;97350.72;4937527;28;102469;-76
2022/02/20 22:26:38;;;;;;;;;4.00;4.00;;;;;14.69;45.50;97339.84;4963182;28;102282;-76
2022/02/20 22:29:05;;;;;;;;;3.50;3.00;;;;;14.68;45.27;97341.72;4958067;28;108014;-76
2022/02/20 22:31:32;;;;;;;;;4.00;3.00;;;;;14.68;45.72;97339.00;4942471;28;102174;-75
2022/02/20 22:34:01;;;;;;;;;2.00;2.00;;;;;14.67;45.61;97337.41;4957689;28;102482;-76
2022/02/20 22:36:30;;;;;;;;;3.00;2.00;;;;;14.64;45.68;97320.75;4958367;28;102813;-76
2022/02/20 22:38:57;;;;;;;;;2.00;2.00;;;;;14.65;44.96;97327.84;4957377;28;104081;-75
2022/02/20 22:41:25;;;;;;;;;2.00;2.00;;;;;14.64;45.06;97329.72;4949951;28;102423;-76
2022/02/20 22:43:52;;;;;;;;;1.75;1.75;;;;;14.64;45.15;97326.19;4948110;28;103505;-75
2022/02/20 22:46:19;;;;;;;;;3.00;3.00;;;;;14.62;45.36;97321.03;4956998;28;105708;-75
2022/02/20 22:48:46;;;;;;;;;3.50;3.00;;;;;14.59;45.47;97318.78;4954876;28;104466;-75
2022/02/20 22:51:13;;;;;;;;;3.50;2.00;;;;;14.60;45.15;97312.28;4952290;28;102810;-75
2022/02/20 22:53:40;;;;;;;;;2.00;2.00;;;;;14.59;45.03;97316.06;4948618;28;102328;-76
2022/02/20 22:56:08;;;;;;;;;3.00;3.00;;;;;14.60;44.93;97315.00;4948825;28;103433;-76
2022/02/20 22:58:35;;;;;;;;;3.25;3.00;;;;;14.60;44.82;97309.56;4929953;28;107744;-76
2022/02/20 23:01:02;;;;;;;;;4.00;3.25;;;;;14.61;44.91;97299.50;4949507;28;102478;-76
2022/02/20 23:03:30;;;;;;;;;3.25;2.50;;;;;14.60;44.94;97297.84;4942753;28;102444;-75
2022/02/20 23:05:57;;;;;;;;;1.50;1.50;;;;;14.59;45.09;97301.69;4933881;28;102391;-75
2022/02/20 23:08:24;;;;;;;;;1.75;1.50;;;;;14.60;44.96;97292.41;4952669;28;104142;-75
2022/02/20 23:10:51;;;;;;;;;4.00;3.00;;;;;14.57;44.67;97276.63;4938629;28;103112;-76
2022/02/20 23:13:18;;;;;;;;;3.25;3.00;;;;;14.57;45.01;97271.19;4954863;28;103766;-75
2022/02/20 23:15:45;;;;;;;;;2.00;2.00;;;;;14.57;44.80;97274.72;4949620;28;102839;-76
2022/02/20 23:18:13;;;;;;;;;3.00;3.00;;;;;14.55;44.84;97268.72;4958327;28;104063;-75
2022/02/20 23:20:40;;;;;;;;;3.00;3.00;;;;;14.56;44.75;97269.53;4958982;28;102621;-76
2022/02/20 23:23:07;;;;;;;;;2.50;2.00;;;;;14.54;44.75;97256.22;4951020;28;102567;-75
2022/02/20 23:25:34;;;;;;;;;0.00;0.00;;;;;14.55;44.75;97251.56;4954494;28;102622;-76
2022/02/20 23:28:02;;;;;;;;;2.00;1.25;;;;;14.54;44.48;97255.38;4950742;28;104040;-75
2022/02/20 23:30:29;;;;;;;;;3.00;2.25;;;;;14.52;44.33;97241.22;4940980;28;105624;-75
2022/02/20 23:32:57;;;;;;;;;2.75;1.50;;;;;14.51;44.83;97245.00;4961576;28;102348;-75
2022/02/20 23:35:24;;;;;;;;;4.25;2.50;;;;;14.50;44.55;97240.66;4955273;28;102966;-75
2022/02/20 23:37:51;;;;;;;;;1.00;1.00;;;;;14.49;44.89;97237.13;4959938;28;104390;-76
2022/02/20 23:40:18;;;;;;;;;1.00;1.00;;;;;14.50;44.46;97246.13;4941038;28;102489;-75
2022/02/20 23:42:45;;;;;;;;;1.25;1.00;;;;;14.49;44.18;97237.13;4926665;28;102657;-76
2022/02/20 23:45:13;;;;;;;;;2.00;2.00;;;;;14.49;44.63;97242.56;4909360;28;102389;-75
2022/02/20 23:47:40;;;;;;;;;2.00;2.00;;;;;14.49;44.29;97233.59;4952994;28;104035;-76
2022/02/20 23:50:08;;;;;;;;;2.25;1.50;;;;;14.50;44.50;97232.50;4956798;28;103349;-75
2022/02/20 23:52:35;;;;;;;;;1.75;1.75;;;;;14.50;43.85;97232.50;4942204;28;103093;-76
2022/02/20 23:55:03;;;;;;;;;1.50;1.50;;;;;14.48;44.55;97218.34;4955744;28;102644;-75
2022/02/20 23:57:31;;;;;;;;;2.75;2.75;;;;;14.48;44.11;97212.91;4949232;28;103854;-76
2022/02/20 23:59:58;;;;;;;;;2.00;2.00;;;;;14.48;43.85;97212.91;4958027;28;102387;-75
